createdAt,value
2019-04-23T00:01:07.517Z,7.37
2019-04-23T00:03:34.613Z,9.20
2019-04-23T00:06:17.007Z,7.50
2019-04-23T00:08:48.971Z,4.13
2019-04-23T00:11:15.743Z,4.47
2019-04-23T00:13:50.332Z,5.53
2019-04-23T00:16:21.790Z,5.37
2019-04-23T00:19:16.899Z,10.97
2019-04-23T00:22:13.851Z,4.97
2019-04-23T00:25:19.375Z,5.10
2019-04-23T00:27:28.832Z,2.90
2019-04-23T00:29:56.202Z,3.70
2019-04-23T00:32:37.874Z,6.17
2019-04-23T00:35:04.262Z,7.00
2019-04-23T00:40:03.015Z,3.50
2019-04-23T00:45:07.146Z,5.93
2019-04-23T00:52:45.833Z,5.83
2019-04-23T00:55:15.977Z,5.60
2019-04-23T00:57:48.852Z,5.23
2019-04-23T01:00:26.366Z,8.10
2019-04-23T01:02:58.945Z,3.83
2019-04-23T01:05:31.192Z,9.83
2019-04-23T01:08:10.097Z,6.60
2019-04-23T01:10:53.330Z,6.27
2019-04-23T01:15:59.578Z,5.67
2019-04-23T01:18:45.916Z,5.37
2019-04-23T01:20:54.510Z,11.67
2019-04-23T01:23:47.055Z,13.17
2019-04-23T01:26:30.937Z,8.30
2019-04-23T01:29:08.263Z,7.73
2019-04-23T01:31:43.295Z,5.50
2019-04-23T01:34:20.176Z,4.60
2019-04-23T01:36:42.951Z,5.97
2019-04-23T01:39:21.084Z,13.33
2019-04-23T01:41:58.061Z,13.10
2019-04-23T01:44:32.175Z,8.03
2019-04-23T01:46:54.156Z,6.63
2019-04-23T01:52:01.772Z,9.73
2019-04-23T01:54:30.361Z,4.87
2019-04-23T01:57:11.016Z,9.57
2019-04-23T01:59:38.641Z,8.33
2019-04-23T02:02:12.251Z,6.47
2019-04-23T02:04:47.709Z,5.93
2019-04-23T02:07:15.929Z,3.13
2019-04-23T02:09:48.258Z,6.50
2019-04-23T02:12:22.846Z,7.30
2019-04-23T02:14:49.675Z,4.07
2019-04-23T02:17:21.969Z,5.47
2019-04-23T02:20:01.019Z,6.77
2019-04-23T02:22:54.234Z,10.60
2019-04-23T02:28:15.974Z,8.13
2019-04-23T02:31:18.293Z,7.83
2019-04-23T02:33:31.769Z,5.17
2019-04-23T02:38:31.581Z,8.73
2019-04-23T02:41:04.589Z,9.70
2019-04-23T02:43:26.579Z,8.03
2019-04-23T02:48:44.294Z,6.13
2019-04-23T02:50:54.071Z,4.77
2019-04-23T02:53:53.522Z,8.83
2019-04-23T02:56:15.298Z,10.60
2019-04-23T02:58:54.874Z,9.10
2019-04-23T03:01:21.766Z,5.50
2019-04-23T03:03:59.772Z,8.70
2019-04-23T03:06:19.160Z,7.70
2019-04-23T03:08:46.984Z,8.47
2019-04-23T03:13:54.045Z,12.07
2019-04-23T03:19:31.881Z,6.23
2019-04-23T03:30:13.375Z,17.00
2019-04-23T03:37:39.699Z,7.83
2019-04-23T03:40:07.844Z,11.07
2019-04-23T03:42:42.733Z,11.07
2019-04-23T03:45:37.011Z,8.70
2019-04-23T03:50:23.689Z,8.30
2019-04-23T03:52:44.616Z,10.40
2019-04-23T03:55:30.278Z,8.03
2019-04-23T03:57:58.090Z,9.67
2019-04-23T04:00:32.635Z,7.27
2019-04-23T04:05:41.382Z,14.90
2019-04-23T04:08:13.864Z,10.17
2019-04-23T04:10:44.610Z,6.13
2019-04-23T04:13:06.677Z,6.77
2019-04-23T04:18:33.167Z,7.23
2019-04-23T04:23:24.188Z,9.10
2019-04-23T04:26:00.144Z,10.63
2019-04-23T04:28:28.725Z,11.53
2019-04-23T04:38:42.340Z,9.47
2019-04-23T04:41:07.685Z,11.33
2019-04-23T04:44:05.524Z,9.20
2019-04-23T04:46:21.249Z,8.57
2019-04-23T04:51:20.761Z,22.60
2019-04-23T04:54:00.969Z,12.33
2019-04-23T04:56:29.201Z,9.73
2019-04-23T04:59:01.617Z,12.63
2019-04-23T05:01:25.802Z,10.13
2019-04-23T05:03:45.856Z,9.37
2019-04-23T05:06:39.049Z,11.23
2019-04-23T05:09:04.944Z,10.80
2019-04-23T05:11:54.292Z,15.07
2019-04-23T05:14:28.803Z,10.37
2019-04-23T05:19:29.791Z,10.40
2019-04-23T05:22:01.032Z,12.17
2019-04-23T05:26:53.611Z,9.90
2019-04-23T05:29:31.230Z,12.40
2019-04-23T05:32:04.194Z,12.80
2019-04-23T05:34:46.744Z,16.53
2019-04-23T05:37:20.523Z,14.50
2019-04-23T05:39:54.873Z,16.07
2019-04-23T05:42:26.085Z,10.93
2019-04-23T05:45:00.595Z,10.93
2019-04-23T05:47:50.877Z,15.30
2019-04-23T05:50:09.442Z,14.47
2019-04-23T05:55:10.862Z,17.87
2019-04-23T05:57:42.499Z,11.03
2019-04-23T06:00:16.121Z,17.77
2019-04-23T06:05:24.789Z,11.60
2019-04-23T06:07:57.735Z,15.20
2019-04-23T06:10:27.590Z,9.90
2019-04-23T06:13:00.830Z,18.50
2019-04-23T06:15:36.890Z,17.93
2019-04-23T06:18:20.079Z,22.40
2019-04-23T06:20:54.282Z,17.33
2019-04-23T06:23:25.253Z,14.00
2019-04-23T06:28:40.332Z,14.63
2019-04-23T06:33:34.176Z,22.97
2019-04-23T06:36:05.488Z,18.23
2019-04-23T06:41:16.982Z,15.67
2019-04-23T06:44:15.941Z,15.03
2019-04-23T06:46:43.492Z,19.20
2019-04-23T06:49:17.273Z,13.20
2019-04-23T06:51:53.339Z,15.80
2019-04-23T06:54:21.595Z,19.00
2019-04-23T06:57:02.235Z,14.43
2019-04-23T06:59:24.509Z,18.17
2019-04-23T07:04:47.708Z,20.57
2019-04-23T07:07:25.623Z,19.73
2019-04-23T07:09:37.173Z,18.77
2019-04-23T07:12:10.431Z,16.07
2019-04-23T07:14:51.560Z,12.13
2019-04-23T07:17:08.890Z,19.43
2019-04-23T07:20:05.135Z,18.23
2019-04-23T07:22:23.728Z,20.37
2019-04-23T07:27:30.060Z,17.87
2019-04-23T07:30:03.221Z,22.57
2019-04-23T07:32:43.406Z,24.40
2019-04-23T07:37:37.255Z,16.33
2019-04-23T07:40:27.009Z,16.53
2019-04-23T07:43:30.775Z,17.60
2019-04-23T07:46:20.210Z,19.87
2019-04-23T07:48:35.618Z,18.07
2019-04-23T07:51:14.249Z,19.50
2019-04-23T07:56:21.388Z,26.47
2019-04-23T07:58:44.581Z,22.37
2019-04-23T08:01:17.523Z,19.20
2019-04-23T08:03:58.671Z,19.02
2019-04-23T08:06:22.001Z,18.17
2019-04-23T08:08:56.809Z,18.27
2019-04-23T08:14:03.449Z,26.13
2019-04-23T08:16:56.174Z,20.60
2019-04-23T08:19:05.557Z,19.93
2019-04-23T08:21:43.845Z,18.40
2019-04-23T08:24:38.456Z,18.90
2019-04-23T08:27:18.612Z,22.27
2019-04-23T08:30:07.138Z,15.77
2019-04-23T08:32:47.367Z,17.52
2019-04-23T08:35:16.502Z,17.80
2019-04-23T08:40:25.268Z,18.60
2019-04-23T08:43:00.685Z,21.03
2019-04-23T08:48:20.956Z,19.17
2019-04-23T08:50:44.136Z,17.73
2019-04-23T08:58:30.194Z,15.63
2019-04-23T09:00:58.601Z,19.80
2019-04-23T09:03:33.329Z,12.43
2019-04-23T09:06:16.155Z,20.93
2019-04-23T09:11:16.663Z,16.37
2019-04-23T09:16:09.108Z,19.70
2019-04-23T09:18:46.092Z,14.80
2019-04-23T09:21:16.162Z,17.00
2019-04-23T09:24:03.837Z,16.40
2019-04-23T09:26:22.705Z,14.43
2019-04-23T09:29:12.160Z,18.00
2019-04-23T09:32:01.961Z,14.18
2019-04-23T09:34:18.789Z,16.80
2019-04-23T09:37:19.455Z,15.07
2019-04-23T09:40:20.506Z,15.27
2019-04-23T09:46:04.726Z,17.02
2019-04-23T09:48:41.602Z,22.57
2019-04-23T09:51:02.651Z,14.78
2019-04-23T09:53:34.293Z,14.77
2019-04-23T09:56:06.813Z,14.83
2019-04-23T09:58:41.982Z,17.03
2019-04-23T10:01:23.613Z,21.00
2019-04-23T10:03:38.539Z,16.17
2019-04-23T10:06:09.687Z,15.50
2019-04-23T10:08:39.493Z,15.80
2019-04-23T10:11:09.303Z,18.05
2019-04-23T10:13:45.553Z,15.10
2019-04-23T10:16:19.844Z,12.60
2019-04-23T10:18:51.013Z,15.70
2019-04-23T10:21:23.629Z,16.43
2019-04-23T10:23:55.050Z,14.45
2019-04-23T10:26:26.043Z,16.85
2019-04-23T10:29:00.227Z,11.47
2019-04-23T10:31:31.521Z,17.48
2019-04-23T10:34:04.394Z,13.90
2019-04-23T10:36:37.934Z,12.67
2019-04-23T10:39:14.344Z,16.93
2019-04-23T10:41:44.888Z,12.82
2019-04-23T10:44:38.649Z,22.02
2019-04-23T10:47:58.100Z,10.90
2019-04-23T10:50:51.272Z,16.52
2019-04-23T11:01:07.917Z,11.95
2019-04-23T11:03:53.935Z,14.43
2019-04-23T11:06:23.815Z,20.00
2019-04-23T11:08:40.576Z,16.73
2019-04-23T11:11:30.757Z,15.30
2019-04-23T11:14:05.362Z,22.05
2019-04-23T11:16:51.604Z,17.40
2019-04-23T11:19:10.746Z,22.93
2019-04-23T11:26:15.584Z,18.98
2019-04-23T11:31:36.893Z,15.30
2019-04-23T11:39:05.370Z,17.37
2019-04-23T11:41:46.390Z,11.85
2019-04-23T11:56:02.698Z,24.52
2019-04-23T11:58:37.584Z,15.70
2019-04-23T12:04:21.468Z,21.13
2019-04-23T12:07:22.631Z,15.48
2019-04-23T12:10:29.248Z,18.50
2019-04-23T12:12:57.864Z,16.15
2019-04-23T12:15:49.932Z,13.65
2019-04-23T12:18:05.385Z,20.65
2019-04-23T12:21:04.533Z,16.20
2019-04-23T12:23:57.198Z,22.98
2019-04-23T12:26:33.833Z,17.12
2019-04-23T12:28:50.104Z,21.30
2019-04-23T12:31:47.620Z,15.72
2019-04-23T12:34:39.847Z,13.48
2019-04-23T12:37:09.523Z,17.98
2019-04-23T12:40:44.293Z,22.77
2019-04-23T12:46:45.081Z,12.55
2019-04-23T12:53:01.475Z,16.80
2019-04-23T12:56:12.766Z,16.65
2019-04-23T12:59:51.103Z,25.27
2019-04-23T13:02:25.776Z,21.45
2019-04-23T13:05:12.487Z,19.50
2019-04-23T13:11:52.869Z,23.90
2019-04-23T13:15:11.656Z,20.50
2019-04-23T13:18:03.011Z,16.93
2019-04-23T13:20:38.456Z,14.13
2019-04-23T13:23:47.486Z,14.85
2019-04-23T13:26:30.933Z,24.23
2019-04-23T13:29:24.579Z,20.27
2019-04-23T13:32:04.057Z,23.80
2019-04-23T13:34:58.547Z,19.95
2019-04-23T13:37:29.488Z,23.80
2019-04-23T13:40:00.152Z,20.50
2019-04-23T13:42:52.549Z,24.15
2019-04-23T13:45:56.471Z,17.77
2019-04-23T13:48:06.942Z,17.45
2019-04-23T13:50:59.930Z,17.82
2019-04-23T14:06:10.849Z,29.37
2019-04-23T14:08:41.349Z,23.10
2019-04-23T14:13:59.783Z,18.25
2019-04-23T14:17:08.512Z,21.05
2019-04-23T14:19:34.340Z,18.85
2019-04-23T14:23:08.705Z,20.82
2019-04-23T14:26:18.824Z,23.75
2019-04-23T14:29:32.537Z,13.70
2019-04-23T14:32:19.030Z,17.85
2019-04-23T14:42:28.057Z,16.07
2019-04-23T14:46:41.283Z,19.12
2019-04-23T14:49:33.989Z,23.18
2019-04-23T14:53:53.711Z,14.30
2019-04-23T14:55:56.463Z,17.17
2019-04-23T14:59:29.132Z,12.95
2019-04-23T15:03:20.355Z,17.30
2019-04-23T15:09:34.204Z,28.75
2019-04-23T15:16:17.011Z,17.90
2019-04-23T15:23:11.212Z,14.45
2019-04-23T15:40:53.930Z,15.93
2019-04-23T15:58:46.784Z,13.60
2019-04-23T16:04:33.702Z,19.05
2019-04-23T16:08:27.934Z,16.57
2019-04-23T16:11:43.878Z,14.05
2019-04-23T16:14:40.656Z,15.58
2019-04-23T16:17:51.755Z,16.10
2019-04-23T16:20:58.433Z,12.25
2019-04-23T16:27:01.039Z,12.23
2019-04-23T16:30:40.751Z,15.32
2019-04-23T16:33:20.640Z,13.60
2019-04-23T16:36:32.494Z,11.12
2019-04-23T16:39:13.416Z,15.78
2019-04-23T16:42:03.954Z,15.40
2019-04-23T16:50:20.854Z,16.95
2019-04-23T16:53:11.198Z,10.38
2019-04-23T16:55:37.834Z,13.10
2019-04-23T16:58:19.188Z,15.53
2019-04-23T17:03:31.973Z,17.57
2019-04-23T17:06:30.950Z,12.90
2019-04-23T17:09:15.405Z,12.35
2019-04-23T17:11:44.484Z,11.28
2019-04-23T17:14:21.357Z,16.60
2019-04-23T17:16:59.792Z,18.27
2019-04-23T17:19:31.752Z,17.82
2019-04-23T17:22:12.496Z,13.88
2019-04-23T17:24:59.345Z,15.80
2019-04-23T17:27:24.512Z,20.57
2019-04-23T17:29:57.934Z,19.60
2019-04-23T17:32:27.962Z,14.47
2019-04-23T17:35:20.679Z,15.57
2019-04-23T17:37:40.199Z,15.43
2019-04-23T17:40:26.534Z,20.70
2019-04-23T17:43:15.781Z,20.27
2019-04-23T17:45:32.320Z,15.40
2019-04-23T17:48:16.045Z,18.95
2019-04-23T17:51:00.573Z,14.68
2019-04-23T17:53:25.373Z,15.20
2019-04-23T17:56:11.246Z,17.20
2019-04-23T18:01:17.039Z,17.52
2019-04-23T18:03:49.187Z,23.67
2019-04-23T18:06:37.352Z,15.93
2019-04-23T18:11:23.344Z,14.30
2019-04-23T18:13:57.914Z,20.17
2019-04-23T18:16:36.945Z,20.57
2019-04-23T18:21:46.178Z,17.90
2019-04-23T18:33:01.360Z,14.43
2019-04-23T18:35:19.319Z,14.47
2019-04-23T18:37:49.231Z,20.17
2019-04-23T18:40:21.634Z,15.40
2019-04-23T18:45:46.784Z,22.13
2019-04-23T18:48:33.004Z,15.93
2019-04-23T18:51:01.109Z,12.98
2019-04-23T18:53:40.928Z,18.85
2019-04-23T18:56:06.818Z,19.45
2019-04-23T19:01:29.777Z,18.87
2019-04-23T19:06:47.342Z,14.93
2019-04-23T19:12:56.942Z,18.73
2019-04-23T19:15:37.249Z,16.53
2019-04-23T19:20:58.665Z,22.17
2019-04-23T19:25:38.895Z,16.97
2019-04-23T19:28:32.462Z,20.30
2019-04-23T19:31:26.069Z,21.73
2019-04-23T19:36:56.397Z,23.97
2019-04-23T19:44:24.949Z,16.33
2019-04-23T19:49:32.776Z,19.87
2019-04-23T19:51:57.760Z,17.70
2019-04-23T19:54:47.686Z,19.03
2019-04-23T19:57:22.348Z,19.50
2019-04-23T20:02:15.129Z,31.17
2019-04-23T20:07:22.759Z,23.57
2019-04-23T20:09:55.225Z,22.03
2019-04-23T20:12:25.360Z,20.07
2019-04-23T20:14:58.132Z,24.50
2019-04-23T20:20:18.333Z,18.93
2019-04-23T20:22:42.161Z,27.73
2019-04-23T20:25:31.486Z,19.00
2019-04-23T20:27:48.618Z,21.13
2019-04-23T20:35:34.828Z,26.20
2019-04-23T20:38:25.543Z,32.50
2019-04-23T20:43:14.712Z,27.35
2019-04-23T20:48:26.762Z,20.67
2019-04-23T20:51:08.546Z,25.60
2019-04-23T20:53:28.498Z,21.43
2019-04-23T20:58:38.853Z,23.63
2019-04-23T21:01:14.334Z,24.10
2019-04-23T21:03:49.132Z,18.80
2019-04-23T21:09:23.669Z,17.77
2019-04-23T21:11:12.644Z,21.17
2019-04-23T21:14:12.179Z,19.83
2019-04-23T21:19:16.539Z,26.30
2019-04-23T21:21:36.549Z,21.20
2019-04-23T21:24:01.325Z,20.08
2019-04-23T21:26:37.074Z,24.40
2019-04-23T21:29:02.567Z,22.27
2019-04-23T21:31:37.737Z,23.43
2019-04-23T21:34:17.337Z,19.70
2019-04-23T21:37:04.430Z,20.30
2019-04-23T21:40:02.587Z,29.07
2019-04-23T21:42:35.682Z,23.87
2019-04-23T21:44:59.313Z,22.93
2019-04-23T21:47:38.573Z,21.37
2019-04-23T21:50:15.028Z,21.20
2019-04-23T21:52:48.717Z,24.17
2019-04-23T21:55:04.058Z,21.87
2019-04-23T22:00:08.326Z,20.80
2019-04-23T22:02:56.867Z,15.40
2019-04-23T22:05:25.024Z,26.07
2019-04-23T22:08:02.220Z,27.03
2019-04-23T22:10:28.253Z,20.67
2019-04-23T22:14:07.516Z,22.87
2019-04-23T22:15:34.891Z,21.90
2019-04-23T22:18:00.249Z,22.23
2019-04-23T22:20:44.068Z,23.60
2019-04-23T22:23:11.354Z,25.60
2019-04-23T22:25:50.581Z,24.67
2019-04-23T22:28:18.049Z,18.40
2019-04-23T22:33:27.181Z,29.40
2019-04-23T22:35:57.709Z,24.97
2019-04-23T22:40:59.978Z,18.27
2019-04-23T22:43:30.749Z,15.85
2019-04-23T22:46:10.937Z,24.50
2019-04-23T22:48:50.592Z,23.83
2019-04-23T22:51:21.372Z,25.83
2019-04-23T22:53:50.818Z,17.20
2019-04-23T22:56:25.164Z,24.50
2019-04-23T22:58:51.267Z,17.87
2019-04-23T23:03:58.887Z,18.63
2019-04-23T23:06:43.478Z,22.30
2019-04-23T23:11:42.862Z,25.85
2019-04-23T23:16:45.352Z,17.03
2019-04-23T23:19:29.875Z,22.53
2019-04-23T23:24:27.282Z,23.07
2019-04-23T23:27:00.374Z,21.17
2019-04-23T23:29:29.975Z,20.03
2019-04-23T23:32:07.429Z,21.60
2019-04-23T23:34:51.923Z,22.77
2019-04-23T23:37:07.151Z,21.23
2019-04-23T23:42:16.008Z,18.00
2019-04-23T23:47:28.837Z,17.60
2019-04-23T23:49:56.603Z,27.53
2019-04-23T23:52:35.476Z,24.03
2019-04-23T23:55:05.955Z,23.93
2019-04-23T23:57:21.513Z,25.67
